Hlavní strana
METAR-TAF:

METAR-TAF

Letiště :

Mezinárodní letiště Abú Zabí

Abú Dhabí, Spojené arabské emiráty

zeměpisná šířka: 24-26N, zeměpisná délka: 054-39E, výška: 16 m

Aktuální stav počasí

Zpráva byla vytvořena před 44 minutami, v 16:00 UTC
Severoseverovýchodní vítr 7 kt
Teplota 23°C
Vlhkost vzduchu 61%
Tlak 1019 hPa
Viditelnost 10 km a více
Žádná oblačnost pod 1500 m, nevyskytují se cumulonimby.

METAR: OMAA 171600Z 02007KT CAVOK 23/15 Q1019 NOSIG

Čas: 20:44 (16:44 UTC)

Předpověď počasí

Zpráva byla vytvořena před 5 hodinami a 44 minutami, v 11:00 UTC
Předpověď platná od 17 v 12 UTC do 18 v 18 UTC
Severní vítr 10 kt
Viditelnost 10 km a více
Žádná oblačnost pod 1500 m, nevyskytují se cumulonimby.
Změna
od 17 v 20 UTC do 17 v 22 UTC
Východní vítr 5 kt
Změna
od 18 v 08 UTC do 18 v 10 UTC
Severozápadní vítr 12 kt

TAF: OMAA 171100Z 1712/1818 01010KT CAVOK BECMG 1720/1722 09005KT BECMG 1808/1810 32012KT

Stav a předpovědi počasí z více než 4 000 letišť (zprávy METAR a TAF).

Červené a žluté tečky na mapě představují dostupné meteorologické stanice.

Když kurzor umístíte na tečku, zobrazí se název stanice.

Pak kliknutím zobrazíte stav a předpověď počasí.

Chcete-li změnit mapu, kliknutím na zelené tlačítko se znaménkem +mapu přiblížíte, kliknutím na zelené tlačítko se znaménkem – mapu oddálíte a kliknutím na zelené šipky přejdete na sousední mapy.


METAR-TAF: